createdAt,value
2019-04-19T00:01:01.381Z,1021.57
2019-04-19T00:02:02.422Z,1021.53
2019-04-19T00:02:56.154Z,1021.58
2019-04-19T00:03:57.303Z,1021.54
2019-04-19T00:04:59.855Z,1021.56
2019-04-19T00:05:56.046Z,1021.55
2019-04-19T00:07:05.606Z,1021.57
2019-04-19T00:08:16.717Z,1021.55
2019-04-19T00:09:12.873Z,1021.58
2019-04-19T00:10:03.518Z,1021.59
2019-04-19T00:11:09.395Z,1021.58
2019-04-19T00:12:09.201Z,1021.54
2019-04-19T00:12:59.806Z,1021.53
2019-04-19T00:13:55.742Z,1021.57
2019-04-19T00:14:55.490Z,1021.54
2019-04-19T00:15:56.070Z,1021.55
2019-04-19T00:16:55.611Z,1021.54
2019-04-19T00:18:00.745Z,1021.54
2019-04-19T00:19:22.476Z,1021.52
2019-04-19T00:20:22.265Z,1021.55
2019-04-19T00:21:12.504Z,1021.53
2019-04-19T00:22:13.220Z,1021.52
2019-04-19T00:23:09.013Z,1021.49
2019-04-19T00:23:57.843Z,1021.53
2019-04-19T00:24:56.398Z,1021.52
2019-04-19T00:25:55.738Z,1021.51
2019-04-19T00:26:55.326Z,1021.48
2019-04-19T00:27:59.393Z,1021.48
2019-04-19T00:29:01.010Z,1021.48
2019-04-19T00:30:02.233Z,1021.51
2019-04-19T00:31:11.945Z,1021.50
2019-04-19T00:32:11.794Z,1021.54
2019-04-19T00:33:09.080Z,1021.53
2019-04-19T00:33:58.025Z,1021.53
2019-04-19T00:34:55.202Z,1021.53
2019-04-19T00:35:55.899Z,1021.53
2019-04-19T00:36:55.412Z,1021.52
2019-04-19T00:38:05.414Z,1021.53
2019-04-19T00:39:15.390Z,1021.51
2019-04-19T00:40:18.217Z,1021.49
2019-04-19T00:41:14.095Z,1021.50
2019-04-19T00:42:15.356Z,1021.51
2019-04-19T00:43:10.302Z,1021.49
2019-04-19T00:44:08.963Z,1021.52
2019-04-19T00:45:17.484Z,1021.50
2019-04-19T00:46:09.236Z,1021.51
2019-04-19T00:47:13.178Z,1021.51
2019-04-19T00:48:07.823Z,1021.50
2019-04-19T00:49:09.113Z,1021.52
2019-04-19T00:50:07.447Z,1021.51
2019-04-19T00:51:08.131Z,1021.52
2019-04-19T00:52:05.318Z,1021.51
2019-04-19T00:53:08.837Z,1021.52
2019-04-19T00:54:06.321Z,1021.51
2019-04-19T00:55:04.320Z,1021.49
2019-04-19T00:56:05.801Z,1021.50
2019-04-19T00:57:02.376Z,1021.48
2019-04-19T00:58:06.151Z,1021.51
2019-04-19T00:59:00.998Z,1021.50
2019-04-19T00:59:56.487Z,1021.48
2019-04-19T01:00:57.953Z,1021.49
2019-04-19T01:02:00.817Z,1021.51
2019-04-19T01:02:57.701Z,1021.49
2019-04-19T01:03:55.636Z,1021.50
2019-04-19T01:05:01.191Z,1021.53
2019-04-19T01:06:02.057Z,1021.53
2019-04-19T01:06:58.832Z,1021.50
2019-04-19T01:07:55.730Z,1021.51
2019-04-19T01:09:11.896Z,1021.51
2019-04-19T01:10:09.854Z,1021.58
2019-04-19T01:11:08.045Z,1021.55
2019-04-19T01:12:10.317Z,1021.59
2019-04-19T01:13:09.917Z,1021.58
2019-04-19T01:14:07.307Z,1021.56
2019-04-19T01:15:05.806Z,1021.57
2019-04-19T01:16:05.937Z,1021.56
2019-04-19T01:17:15.270Z,1021.54
2019-04-19T01:18:11.836Z,1021.58
2019-04-19T01:19:03.447Z,1021.59
2019-04-19T01:20:01.189Z,1021.61
2019-04-19T01:20:54.520Z,1021.60
2019-04-19T01:21:55.368Z,1021.60
2019-04-19T01:23:01.052Z,1021.62
2019-04-19T01:23:58.715Z,1021.64
2019-04-19T01:24:54.618Z,1021.62
2019-04-19T01:26:02.971Z,1021.64
2019-04-19T01:26:56.327Z,1021.66
2019-04-19T01:27:58.395Z,1021.68
2019-04-19T01:29:01.694Z,1021.62
2019-04-19T01:29:57.506Z,1021.67
2019-04-19T01:30:54.958Z,1021.63
2019-04-19T01:32:00.548Z,1021.66
2019-04-19T01:32:59.038Z,1021.64
2019-04-19T01:33:54.676Z,1021.66
2019-04-19T01:35:00.979Z,1021.66
2019-04-19T01:35:57.072Z,1021.63
2019-04-19T01:36:54.798Z,1021.64
2019-04-19T01:37:59.516Z,1021.66
2019-04-19T01:39:13.182Z,1021.66
2019-04-19T01:40:12.246Z,1021.64
2019-04-19T01:41:15.777Z,1021.65
2019-04-19T01:42:04.774Z,1021.64
2019-04-19T01:43:15.035Z,1021.67
2019-04-19T01:44:15.872Z,1021.65
2019-04-19T01:45:09.954Z,1021.68
2019-04-19T01:46:12.017Z,1021.63
2019-04-19T01:47:07.342Z,1021.62
2019-04-19T01:48:06.110Z,1021.62
2019-04-19T01:49:06.268Z,1021.61
2019-04-19T01:50:05.522Z,1021.65
2019-04-19T01:51:08.650Z,1021.65
2019-04-19T01:52:13.253Z,1021.66
2019-04-19T01:53:14.801Z,1021.67
2019-04-19T01:54:09.951Z,1021.68
2019-04-19T01:55:05.900Z,1021.65
2019-04-19T01:56:03.836Z,1021.67
2019-04-19T01:56:58.284Z,1021.68
2019-04-19T01:58:00.130Z,1021.72
2019-04-19T01:58:57.606Z,1021.71
2019-04-19T01:59:57.132Z,1021.71
2019-04-19T02:00:57.346Z,1021.73
2019-04-19T02:02:01.832Z,1021.69
2019-04-19T02:02:57.683Z,1021.72
2019-04-19T02:03:54.533Z,1021.72
2019-04-19T02:05:00.771Z,1021.74
2019-04-19T02:06:01.180Z,1021.74
2019-04-19T02:06:54.749Z,1021.72
2019-04-19T02:07:57.976Z,1021.76
2019-04-19T02:08:56.315Z,1021.78
2019-04-19T02:10:08.974Z,1021.76
2019-04-19T02:11:02.701Z,1021.74
2019-04-19T02:12:04.668Z,1021.76
2019-04-19T02:13:05.042Z,1021.77
2019-04-19T02:14:05.944Z,1021.78
2019-04-19T02:15:01.055Z,1021.78
2019-04-19T02:15:55.681Z,1021.84
2019-04-19T02:17:00.122Z,1021.84
2019-04-19T02:17:54.377Z,1021.83
2019-04-19T02:19:00.638Z,1021.85
2019-04-19T02:19:58.943Z,1021.87
2019-04-19T02:20:54.563Z,1021.84
2019-04-19T02:21:55.243Z,1021.87
2019-04-19T02:22:58.856Z,1021.91
2019-04-19T02:23:57.317Z,1021.85
2019-04-19T02:24:55.949Z,1021.86
2019-04-19T02:26:00.545Z,1021.88
2019-04-19T02:26:59.367Z,1021.84
2019-04-19T02:27:54.524Z,1021.91
2019-04-19T02:28:55.697Z,1021.90
2019-04-19T02:30:03.138Z,1021.90
2019-04-19T02:31:12.437Z,1021.90
2019-04-19T02:33:15.175Z,1021.87
2019-04-19T02:35:29.380Z,1021.88
2019-04-19T02:36:30.731Z,1021.91
2019-04-19T02:37:19.648Z,1021.91
2019-04-19T02:38:26.864Z,1021.94
2019-04-19T02:39:21.282Z,1021.93
2019-04-19T02:40:39.162Z,1021.92
2019-04-19T02:41:24.734Z,1021.93
2019-04-19T02:42:34.200Z,1021.93
2019-04-19T02:43:24.337Z,1021.93
2019-04-19T02:44:17.737Z,1021.95
2019-04-19T02:45:17.481Z,1021.96
2019-04-19T02:47:34.329Z,1021.96
2019-04-19T02:48:26.345Z,1021.97
2019-04-19T02:49:28.352Z,1021.95
2019-04-19T02:50:23.739Z,1021.96
2019-04-19T02:52:27.403Z,1021.99
2019-04-19T02:54:30.898Z,1022.02
2019-04-19T02:55:14.448Z,1022.03
2019-04-19T02:56:31.574Z,1022.07
2019-04-19T02:57:29.358Z,1022.02
2019-04-19T02:58:33.913Z,1022.03
2019-04-19T02:59:37.200Z,1022.01
2019-04-19T03:00:32.527Z,1021.99
2019-04-19T03:01:30.439Z,1022.00
2019-04-19T03:02:38.225Z,1022.00
2019-04-19T03:03:21.499Z,1022.00
2019-04-19T03:04:37.730Z,1021.99
2019-04-19T03:06:09.052Z,1021.99
2019-04-19T03:06:56.223Z,1021.98
2019-04-19T03:07:53.818Z,1022.00
2019-04-19T03:08:52.849Z,1021.99
2019-04-19T03:09:53.696Z,1021.98
2019-04-19T03:11:07.525Z,1021.98
2019-04-19T03:12:07.716Z,1021.99
2019-04-19T03:13:08.300Z,1021.96
2019-04-19T03:14:09.302Z,1021.99
2019-04-19T03:15:08.207Z,1022.03
2019-04-19T03:16:11.798Z,1022.03
2019-04-19T03:17:11.336Z,1022.00
2019-04-19T03:18:18.290Z,1022.07
2019-04-19T03:19:06.087Z,1022.06
2019-04-19T03:20:05.626Z,1022.07
2019-04-19T03:21:02.254Z,1022.07
2019-04-19T03:22:13.385Z,1022.07
2019-04-19T03:23:08.260Z,1022.10
2019-04-19T03:24:05.925Z,1022.11
2019-04-19T03:25:10.833Z,1022.12
2019-04-19T03:26:04.730Z,1022.09
2019-04-19T03:27:04.648Z,1022.12
2019-04-19T03:28:03.318Z,1022.12
2019-04-19T03:28:56.789Z,1022.12
2019-04-19T03:30:09.441Z,1022.12
2019-04-19T03:31:23.514Z,1022.14
2019-04-19T03:32:49.171Z,1022.15
2019-04-19T03:33:35.592Z,1022.12
2019-04-19T03:35:07.277Z,1022.16
2019-04-19T03:36:12.456Z,1022.13
2019-04-19T03:37:06.583Z,1022.18
2019-04-19T03:38:12.892Z,1022.12
2019-04-19T03:39:18.157Z,1022.12
2019-04-19T03:40:20.393Z,1022.13
2019-04-19T03:41:09.272Z,1022.15
2019-04-19T03:42:12.728Z,1022.19
2019-04-19T03:43:10.578Z,1022.12
2019-04-19T03:44:09.877Z,1022.10
2019-04-19T03:45:21.959Z,1022.15
2019-04-19T03:46:12.620Z,1022.14
2019-04-19T03:47:09.207Z,1022.13
2019-04-19T03:48:15.669Z,1022.13
2019-04-19T03:49:19.442Z,1022.16
2019-04-19T03:50:11.964Z,1022.14
2019-04-19T03:51:13.875Z,1022.18
2019-04-19T03:52:17.488Z,1022.17
2019-04-19T03:53:15.465Z,1022.18
2019-04-19T03:54:13.051Z,1022.20
2019-04-19T03:55:15.680Z,1022.18
2019-04-19T03:56:20.968Z,1022.17
2019-04-19T03:57:04.682Z,1022.18
2019-04-19T03:58:01.821Z,1022.15
2019-04-19T03:58:53.966Z,1022.19
2019-04-19T03:59:52.366Z,1022.19
2019-04-19T04:00:52.063Z,1022.18
2019-04-19T04:01:55.146Z,1022.23
2019-04-19T04:02:53.188Z,1022.21
2019-04-19T04:03:56.613Z,1022.23
2019-04-19T04:04:59.452Z,1022.21
2019-04-19T04:05:54.602Z,1022.24
2019-04-19T04:06:52.623Z,1022.23
2019-04-19T04:07:58.105Z,1022.25
2019-04-19T04:08:58.223Z,1022.25
2019-04-19T04:09:55.877Z,1022.24
2019-04-19T04:10:52.136Z,1022.28
2019-04-19T04:12:02.278Z,1022.28
2019-04-19T04:13:02.037Z,1022.32
2019-04-19T04:14:07.494Z,1022.28
2019-04-19T04:15:04.938Z,1022.31
2019-04-19T04:16:05.701Z,1022.29
2019-04-19T04:16:53.797Z,1022.31
2019-04-19T04:17:52.199Z,1022.34
2019-04-19T04:18:51.722Z,1022.34
2019-04-19T04:19:52.532Z,1022.33
2019-04-19T04:20:54.401Z,1022.33
2019-04-19T04:21:54.046Z,1022.32
2019-04-19T04:22:56.499Z,1022.33
2019-04-19T04:24:07.082Z,1022.34
2019-04-19T04:24:58.562Z,1022.34
2019-04-19T04:25:59.131Z,1022.33
2019-04-19T04:27:03.078Z,1022.30
2019-04-19T04:28:01.662Z,1022.34
2019-04-19T04:29:04.463Z,1022.35
2019-04-19T04:30:04.865Z,1022.31
2019-04-19T04:31:03.170Z,1022.34
2019-04-19T04:32:01.507Z,1022.33
2019-04-19T04:33:04.672Z,1022.35
2019-04-19T04:34:02.804Z,1022.35
2019-04-19T04:35:08.423Z,1022.39
2019-04-19T04:36:13.093Z,1022.39
2019-04-19T04:37:09.907Z,1022.40
2019-04-19T04:38:02.773Z,1022.40
2019-04-19T04:38:52.913Z,1022.40
2019-04-19T04:39:51.499Z,1022.41
2019-04-19T04:40:52.726Z,1022.43
2019-04-19T04:42:05.674Z,1022.44
2019-04-19T04:43:03.881Z,1022.47
2019-04-19T04:44:10.175Z,1022.44
2019-04-19T04:45:19.023Z,1022.44
2019-04-19T04:46:16.831Z,1022.47
2019-04-19T04:47:12.000Z,1022.46
2019-04-19T04:48:05.364Z,1022.46
2019-04-19T04:49:13.675Z,1022.48
2019-04-19T04:50:12.537Z,1022.49
2019-04-19T04:51:13.467Z,1022.46
2019-04-19T04:52:03.798Z,1022.48
2019-04-19T04:52:52.741Z,1022.51
2019-04-19T04:53:51.254Z,1022.52
2019-04-19T04:54:52.331Z,1022.52
2019-04-19T04:55:57.935Z,1022.51
2019-04-19T04:57:02.426Z,1022.51
2019-04-19T04:57:57.045Z,1022.53
2019-04-19T04:58:52.351Z,1022.54
2019-04-19T04:59:55.214Z,1022.54
2019-04-19T05:00:58.907Z,1022.55
2019-04-19T05:01:58.668Z,1022.58
2019-04-19T05:03:04.732Z,1022.58
2019-04-19T05:04:08.656Z,1022.57
2019-04-19T05:05:10.442Z,1022.61
2019-04-19T05:06:14.954Z,1022.59
2019-04-19T05:07:10.261Z,1022.62
2019-04-19T05:08:14.228Z,1022.63
2019-04-19T05:09:11.325Z,1022.65
2019-04-19T05:10:09.401Z,1022.65
2019-04-19T05:11:11.888Z,1022.63
2019-04-19T05:12:12.862Z,1022.65
2019-04-19T05:14:13.968Z,1022.68
2019-04-19T05:15:05.714Z,1022.67
2019-04-19T05:16:18.291Z,1022.69
2019-04-19T05:17:29.964Z,1022.72
2019-04-19T05:18:17.331Z,1022.69
2019-04-19T05:19:04.056Z,1022.73
2019-04-19T05:20:12.128Z,1022.71
2019-04-19T05:21:02.541Z,1022.74
2019-04-19T05:22:05.627Z,1022.70
2019-04-19T05:23:08.232Z,1022.76
2019-04-19T05:24:13.848Z,1022.73
2019-04-19T05:25:21.981Z,1022.78
2019-04-19T05:26:25.302Z,1022.76
2019-04-19T05:28:15.021Z,1022.81
2019-04-19T05:29:08.544Z,1022.78
2019-04-19T05:29:53.346Z,1022.78
2019-04-19T05:30:57.262Z,1022.80
2019-04-19T05:31:54.727Z,1022.79
2019-04-19T05:33:02.763Z,1022.82
2019-04-19T05:34:11.198Z,1022.81
2019-04-19T05:35:06.911Z,1022.76
2019-04-19T05:36:11.168Z,1022.78
2019-04-19T05:37:10.854Z,1022.79
2019-04-19T05:38:07.517Z,1022.80
2019-04-19T05:39:23.555Z,1022.77
2019-04-19T05:40:09.469Z,1022.83
2019-04-19T05:41:02.543Z,1022.86
2019-04-19T05:42:06.235Z,1022.86
2019-04-19T05:43:06.458Z,1022.83
2019-04-19T05:44:23.469Z,1022.86
2019-04-19T05:45:26.111Z,1022.85
2019-04-19T05:46:17.857Z,1022.88
2019-04-19T05:47:10.247Z,1022.88
2019-04-19T05:47:59.582Z,1022.85
2019-04-19T05:49:06.429Z,1022.84
2019-04-19T05:50:13.978Z,1022.82
2019-04-19T05:51:16.578Z,1022.87
2019-04-19T05:52:08.157Z,1022.85
2019-04-19T05:53:04.011Z,1022.82
2019-04-19T05:53:53.743Z,1022.85
2019-04-19T05:54:51.428Z,1022.83
2019-04-19T05:55:50.122Z,1022.84
2019-04-19T05:56:55.032Z,1022.85
2019-04-19T05:58:05.780Z,1022.85
2019-04-19T05:59:01.430Z,1022.86
2019-04-19T05:59:59.770Z,1022.84
2019-04-19T06:01:04.665Z,1022.84
2019-04-19T06:02:05.448Z,1022.84
2019-04-19T06:03:02.946Z,1022.87
2019-04-19T06:04:07.410Z,1022.87
2019-04-19T06:05:14.955Z,1022.87
2019-04-19T06:06:16.937Z,1022.86
2019-04-19T06:07:09.534Z,1022.89
2019-04-19T06:08:04.246Z,1022.85
2019-04-19T06:08:49.989Z,1022.87
2019-04-19T06:09:49.891Z,1022.86
2019-04-19T06:10:56.282Z,1022.84
2019-04-19T06:11:51.281Z,1022.86
2019-04-19T06:12:58.011Z,1022.86
2019-04-19T06:14:12.492Z,1022.86
2019-04-19T06:15:13.698Z,1022.86
2019-04-19T06:16:11.377Z,1022.88
2019-04-19T06:17:01.527Z,1022.89
2019-04-19T06:18:05.261Z,1022.86
2019-04-19T06:19:11.373Z,1022.88
2019-04-19T06:20:08.527Z,1022.88
2019-04-19T06:21:12.464Z,1022.90
2019-04-19T06:22:04.655Z,1022.91
2019-04-19T06:23:07.129Z,1022.92
2019-04-19T06:24:13.358Z,1022.90
2019-04-19T06:25:06.393Z,1022.95
2019-04-19T06:27:13.187Z,1022.88
2019-04-19T06:29:10.690Z,1022.94
2019-04-19T06:30:15.209Z,1022.88
2019-04-19T06:31:12.536Z,1022.95
2019-04-19T06:32:07.403Z,1022.92
2019-04-19T06:33:15.637Z,1022.90
2019-04-19T06:34:10.259Z,1022.92
2019-04-19T06:35:01.462Z,1022.92
2019-04-19T06:35:55.508Z,1022.97
2019-04-19T06:36:58.603Z,1022.93
2019-04-19T06:37:50.292Z,1022.93
2019-04-19T06:38:50.602Z,1022.92
2019-04-19T06:39:53.600Z,1022.99
2019-04-19T06:40:57.896Z,1022.95
2019-04-19T06:41:55.757Z,1022.96
2019-04-19T06:42:58.042Z,1022.99
2019-04-19T06:44:01.425Z,1022.97
2019-04-19T06:45:07.703Z,1023.03
2019-04-19T06:46:07.020Z,1023.02
2019-04-19T06:47:00.622Z,1023.02
2019-04-19T06:47:57.925Z,1023.02
2019-04-19T06:48:57.688Z,1023.02
2019-04-19T06:49:52.484Z,1023.02
2019-04-19T06:50:54.141Z,1023.05
2019-04-19T06:51:58.555Z,1023.04
2019-04-19T06:52:49.234Z,1023.08
2019-04-19T06:53:56.628Z,1023.05
2019-04-19T06:54:49.792Z,1023.05
2019-04-19T06:55:53.012Z,1023.09
2019-04-19T06:57:00.704Z,1023.13
2019-04-19T06:57:59.028Z,1023.11
2019-04-19T06:58:57.678Z,1023.13
2019-04-19T07:00:03.402Z,1023.14
2019-04-19T07:01:04.430Z,1023.19
2019-04-19T07:01:52.949Z,1023.19
2019-04-19T07:02:49.738Z,1023.14
2019-04-19T07:03:49.518Z,1023.20
2019-04-19T07:05:01.637Z,1023.18
2019-04-19T07:06:06.385Z,1023.18
2019-04-19T07:07:10.585Z,1023.19
2019-04-19T07:08:18.177Z,1023.17
2019-04-19T07:09:14.035Z,1023.19
2019-04-19T07:10:16.765Z,1023.21
2019-04-19T07:11:11.632Z,1023.16
2019-04-19T07:12:11.975Z,1023.18
2019-04-19T07:13:08.955Z,1023.17
2019-04-19T07:13:58.400Z,1023.24
2019-04-19T07:15:06.639Z,1023.23
2019-04-19T07:16:15.903Z,1023.22
2019-04-19T07:17:07.266Z,1023.21
2019-04-19T07:18:05.202Z,1023.24
2019-04-19T07:19:08.018Z,1023.21
2019-04-19T07:20:06.486Z,1023.20
2019-04-19T07:21:11.863Z,1023.24
2019-04-19T07:22:06.241Z,1023.22
2019-04-19T07:23:02.595Z,1023.24
2019-04-19T07:24:07.882Z,1023.25
2019-04-19T07:25:13.298Z,1023.24
2019-04-19T07:26:09.956Z,1023.33
2019-04-19T07:27:05.949Z,1023.24
2019-04-19T07:27:58.570Z,1023.33
2019-04-19T07:28:49.378Z,1023.31
2019-04-19T07:29:50.164Z,1023.32
2019-04-19T07:30:55.420Z,1023.38
2019-04-19T07:31:49.154Z,1023.31
2019-04-19T07:32:55.691Z,1023.40
2019-04-19T07:33:57.260Z,1023.34
2019-04-19T07:35:03.578Z,1023.44
2019-04-19T07:36:07.827Z,1023.43
2019-04-19T07:37:09.143Z,1023.38
2019-04-19T07:38:18.288Z,1023.47
2019-04-19T07:39:11.662Z,1023.40
2019-04-19T07:40:15.991Z,1023.37
2019-04-19T07:41:08.757Z,1023.39
2019-04-19T07:42:13.682Z,1023.41
2019-04-19T07:43:06.161Z,1023.39
2019-04-19T07:43:59.014Z,1023.40
2019-04-19T07:44:55.944Z,1023.40
2019-04-19T07:46:10.680Z,1023.45
2019-04-19T07:47:05.511Z,1023.49
2019-04-19T07:47:57.911Z,1023.44
2019-04-19T07:48:49.341Z,1023.46
2019-04-19T07:50:00.570Z,1023.43
2019-04-19T07:50:56.909Z,1023.47
2019-04-19T07:51:57.055Z,1023.49
2019-04-19T07:52:56.474Z,1023.48
2019-04-19T07:53:50.914Z,1023.48
2019-04-19T07:54:55.320Z,1023.47
2019-04-19T07:56:02.024Z,1023.47
2019-04-19T07:57:06.612Z,1023.47
2019-04-19T07:58:27.784Z,1023.47
2019-04-19T07:59:21.608Z,1023.54
2019-04-19T08:01:17.563Z,1023.54
2019-04-19T08:02:13.054Z,1023.54
2019-04-19T08:03:17.229Z,1023.52
2019-04-19T08:04:24.346Z,1023.55
2019-04-19T08:05:15.806Z,1023.56
2019-04-19T08:06:36.321Z,1023.59
2019-04-19T08:07:24.063Z,1023.55
2019-04-19T08:13:28.255Z,1023.64
2019-04-19T08:15:27.829Z,1023.65
2019-04-19T08:16:44.976Z,1023.68
2019-04-19T08:27:22.841Z,1023.70
2019-04-19T08:27:58.622Z,1023.64
2019-04-19T08:28:56.220Z,1023.73
2019-04-19T08:29:56.048Z,1023.70
2019-04-19T08:30:53.975Z,1023.79
2019-04-19T08:31:48.970Z,1023.73
2019-04-19T08:32:47.840Z,1023.70
2019-04-19T08:33:48.847Z,1023.70
2019-04-19T08:34:57.635Z,1023.67
2019-04-19T08:35:50.596Z,1023.68
2019-04-19T08:36:53.167Z,1023.63
2019-04-19T08:37:48.944Z,1023.59
2019-04-19T08:39:06.991Z,1023.63
2019-04-19T08:40:02.807Z,1023.61
2019-04-19T08:41:02.313Z,1023.60
2019-04-19T08:42:12.040Z,1023.59
2019-04-19T08:43:07.520Z,1023.65
2019-04-19T08:44:05.117Z,1023.65
2019-04-19T08:44:57.606Z,1023.65
2019-04-19T08:45:48.619Z,1023.66
2019-04-19T08:46:47.666Z,1023.67
2019-04-19T08:47:59.223Z,1023.64
2019-04-19T08:48:54.255Z,1023.62
2019-04-19T08:49:49.760Z,1023.63
2019-04-19T08:50:51.916Z,1023.64
2019-04-19T08:51:48.720Z,1023.59
2019-04-19T08:52:54.508Z,1023.63
2019-04-19T08:54:03.329Z,1023.64
2019-04-19T08:55:09.959Z,1023.59
2019-04-19T08:56:05.301Z,1023.60
2019-04-19T08:56:54.503Z,1023.61
2019-04-19T08:57:53.571Z,1023.53
2019-04-19T08:59:00.495Z,1023.57
2019-04-19T09:00:12.186Z,1023.56
2019-04-19T09:01:09.795Z,1023.56
2019-04-19T09:02:07.298Z,1023.57
2019-04-19T09:03:01.366Z,1023.58
2019-04-19T09:04:10.100Z,1023.56
2019-04-19T09:05:04.716Z,1023.57
2019-04-19T09:06:49.712Z,1023.60
2019-04-19T09:08:05.091Z,1023.55
2019-04-19T09:09:03.696Z,1023.58
2019-04-19T09:10:22.441Z,1023.56
2019-04-19T09:11:05.591Z,1023.54
2019-04-19T09:12:09.475Z,1023.52
2019-04-19T09:13:18.401Z,1023.54
2019-04-19T09:14:06.988Z,1023.56
2019-04-19T09:15:06.516Z,1023.57
2019-04-19T09:16:06.823Z,1023.56
2019-04-19T09:17:14.658Z,1023.54
2019-04-19T09:18:25.043Z,1023.58
2019-04-19T09:19:12.287Z,1023.55
2019-04-19T09:20:24.766Z,1023.53
2019-04-19T09:21:04.049Z,1023.57
2019-04-19T09:22:03.977Z,1023.59
2019-04-19T09:23:00.077Z,1023.57
2019-04-19T09:23:55.178Z,1023.56
2019-04-19T09:24:55.021Z,1023.51
2019-04-19T09:26:01.120Z,1023.49
2019-04-19T09:27:01.293Z,1023.53
2019-04-19T09:28:13.946Z,1023.57
2019-04-19T09:29:12.438Z,1023.52
2019-04-19T09:30:07.711Z,1023.57
2019-04-19T09:31:04.878Z,1023.54
2019-04-19T09:31:56.894Z,1023.55
2019-04-19T09:32:48.372Z,1023.58
2019-04-19T09:33:52.508Z,1023.56
2019-04-19T09:34:55.366Z,1023.51
2019-04-19T09:35:57.112Z,1023.55
2019-04-19T09:36:58.233Z,1023.59
2019-04-19T09:38:01.532Z,1023.49
2019-04-19T09:39:06.240Z,1023.61
2019-04-19T09:39:56.535Z,1023.55
2019-04-19T09:40:55.863Z,1023.55
2019-04-19T09:41:55.588Z,1023.55
2019-04-19T09:42:56.495Z,1023.56
2019-04-19T09:43:58.668Z,1023.58
2019-04-19T09:44:50.433Z,1023.56
2019-04-19T09:45:47.600Z,1023.53
2019-04-19T09:46:46.984Z,1023.45
2019-04-19T09:47:48.069Z,1023.46
2019-04-19T09:49:05.118Z,1023.52
2019-04-19T09:50:00.380Z,1023.42
2019-04-19T09:51:06.282Z,1023.49
2019-04-19T09:52:07.295Z,1023.46
2019-04-19T09:53:10.932Z,1023.48
2019-04-19T09:54:09.695Z,1023.46
2019-04-19T09:55:12.562Z,1023.44
2019-04-19T09:56:09.036Z,1023.43
2019-04-19T09:57:01.181Z,1023.37
2019-04-19T09:58:06.694Z,1023.39
2019-04-19T09:58:57.670Z,1023.41
2019-04-19T09:59:51.660Z,1023.39
2019-04-19T10:00:50.455Z,1023.40
2019-04-19T10:01:52.285Z,1023.41
2019-04-19T10:02:51.822Z,1023.41
2019-04-19T10:03:51.024Z,1023.40
2019-04-19T10:04:47.430Z,1023.53
2019-04-19T10:05:47.064Z,1023.44
2019-04-19T10:06:46.954Z,1023.48
2019-04-19T10:07:46.998Z,1023.35
2019-04-19T10:08:47.868Z,1023.37
2019-04-19T10:09:54.196Z,1023.34
2019-04-19T10:10:49.048Z,1023.38
2019-04-19T10:11:46.724Z,1023.35
2019-04-19T10:12:47.594Z,1023.38
2019-04-19T10:13:46.712Z,1023.35
2019-04-19T10:14:47.812Z,1023.27
2019-04-19T10:15:47.018Z,1023.28
2019-04-19T10:16:46.927Z,1023.26
2019-04-19T10:17:46.880Z,1023.31
2019-04-19T10:18:54.551Z,1023.32
2019-04-19T10:19:46.696Z,1023.36
2019-04-19T10:20:47.390Z,1023.31
2019-04-19T10:21:49.019Z,1023.35
2019-04-19T10:22:47.083Z,1023.36
2019-04-19T10:23:47.625Z,1023.30
2019-04-19T10:24:47.795Z,1023.31
2019-04-19T10:25:54.470Z,1023.34
2019-04-19T10:26:46.579Z,1023.39
2019-04-19T10:27:47.436Z,1023.28
2019-04-19T10:28:46.565Z,1023.29
2019-04-19T10:29:47.812Z,1023.25
2019-04-19T10:30:46.539Z,1023.27
2019-04-19T10:31:50.310Z,1023.26
2019-04-19T10:32:46.647Z,1023.28
2019-04-19T10:33:53.500Z,1023.21
2019-04-19T10:34:46.505Z,1023.17
2019-04-19T10:35:47.595Z,1023.25
2019-04-19T10:36:49.474Z,1023.21
2019-04-19T10:37:46.488Z,1023.15
2019-04-19T10:38:47.620Z,1023.23
2019-04-19T10:39:47.658Z,1023.26
2019-04-19T10:40:46.446Z,1023.23
2019-04-19T10:41:46.446Z,1023.20
2019-04-19T10:42:47.584Z,1023.22
2019-04-19T10:43:59.673Z,1023.19
2019-04-19T10:44:47.730Z,1023.22
2019-04-19T10:45:46.396Z,1023.24
2019-04-19T10:46:47.378Z,1023.12
2019-04-19T10:47:47.175Z,1023.13
2019-04-19T10:48:58.457Z,1023.17
2019-04-19T10:49:54.904Z,1023.14
2019-04-19T10:50:49.801Z,1023.13
2019-04-19T10:51:46.596Z,1023.08
2019-04-19T10:52:46.334Z,1023.12
2019-04-19T10:53:46.375Z,1023.12
2019-04-19T10:54:47.520Z,1023.10
2019-04-19T10:55:46.622Z,1023.11
2019-04-19T10:56:46.304Z,1023.14
2019-04-19T10:57:47.330Z,1023.16
2019-04-19T10:58:47.149Z,1023.14
2019-04-19T10:59:46.271Z,1023.08
2019-04-19T11:00:47.192Z,1023.12
2019-04-19T11:01:47.460Z,1023.13
2019-04-19T11:02:46.341Z,1023.06
2019-04-19T11:03:46.951Z,1023.08
2019-04-19T11:04:46.917Z,1023.14
2019-04-19T11:05:47.331Z,1023.04
2019-04-19T11:06:47.450Z,1023.09
2019-04-19T11:07:47.661Z,1023.07
2019-04-19T11:08:46.742Z,1023.09
2019-04-19T11:09:46.442Z,1023.06
2019-04-19T11:10:47.475Z,1023.08
2019-04-19T11:11:46.157Z,1023.11
2019-04-19T11:12:46.977Z,1023.17
2019-04-19T11:13:46.221Z,1023.05
2019-04-19T11:14:46.255Z,1023.02
2019-04-19T11:15:46.616Z,1023.18
2019-04-19T11:16:47.309Z,1023.01
2019-04-19T11:17:46.103Z,1023.07
2019-04-19T11:18:46.208Z,1023.04
2019-04-19T11:20:00.833Z,1023.06
2019-04-19T11:20:49.565Z,1023.06
2019-04-19T11:21:46.114Z,1023.13
2019-04-19T11:22:46.118Z,1023.08
2019-04-19T11:23:46.546Z,1023.09
2019-04-19T11:24:46.214Z,1023.12
2019-04-19T11:25:47.454Z,1023.13
2019-04-19T11:26:46.022Z,1023.15
2019-04-19T11:27:49.361Z,1023.13
2019-04-19T11:28:47.166Z,1023.14
2019-04-19T11:29:46.875Z,1023.10
2019-04-19T11:30:47.153Z,1023.16
2019-04-19T11:31:46.321Z,1023.10
2019-04-19T11:32:46.166Z,1023.14
2019-04-19T11:33:46.859Z,1023.11
2019-04-19T11:34:47.175Z,1023.06
2019-04-19T11:35:46.150Z,1023.07
2019-04-19T11:36:46.476Z,1023.08
2019-04-19T11:37:47.054Z,1023.02
2019-04-19T11:38:47.124Z,1023.10
2019-04-19T11:39:46.420Z,1023.08
2019-04-19T11:40:47.024Z,1023.10
2019-04-19T11:41:46.445Z,1023.01
2019-04-19T11:42:46.221Z,1023.08
2019-04-19T11:43:46.535Z,1023.12
2019-04-19T11:44:46.115Z,1023.07
2019-04-19T11:45:46.536Z,1023.04
2019-04-19T11:46:46.294Z,1023.07
2019-04-19T11:47:47.010Z,1023.06
2019-04-19T11:48:46.443Z,1023.06
2019-04-19T11:49:47.339Z,1023.01
2019-04-19T11:50:45.810Z,1023.07
2019-04-19T11:51:45.982Z,1023.05
2019-04-19T11:52:46.564Z,1023.00
2019-04-19T11:53:45.782Z,1023.02
2019-04-19T11:54:46.432Z,1022.94
2019-04-19T11:55:46.642Z,1023.01
2019-04-19T11:56:53.752Z,1022.96
2019-04-19T11:57:46.342Z,1022.98
2019-04-19T11:58:46.707Z,1023.02
2019-04-19T11:59:49.417Z,1022.96
2019-04-19T12:00:45.731Z,1022.95
2019-04-19T12:01:46.031Z,1022.96
2019-04-19T12:02:46.230Z,1022.95
2019-04-19T12:03:46.194Z,1022.91
2019-04-19T12:04:46.617Z,1022.87
2019-04-19T12:05:46.287Z,1022.91
2019-04-19T12:06:45.671Z,1022.96
2019-04-19T12:07:46.471Z,1022.98
2019-04-19T12:08:46.421Z,1023.02
2019-04-19T12:09:45.648Z,1022.97
2019-04-19T12:10:46.457Z,1022.99
2019-04-19T12:11:46.429Z,1023.03
2019-04-19T12:12:45.620Z,1022.99
2019-04-19T12:13:46.421Z,1022.94
2019-04-19T12:14:46.045Z,1022.95
2019-04-19T12:15:48.459Z,1022.96
2019-04-19T12:16:47.169Z,1022.92
2019-04-19T12:17:46.182Z,1022.93
2019-04-19T12:18:46.838Z,1022.90
2019-04-19T12:19:52.018Z,1022.89
2019-04-19T12:20:45.551Z,1022.88
2019-04-19T12:21:45.545Z,1022.84
2019-04-19T12:22:46.148Z,1022.93
2019-04-19T12:23:46.667Z,1022.93
2019-04-19T12:24:46.746Z,1022.94
2019-04-19T12:25:45.827Z,1022.96
2019-04-19T12:26:45.497Z,1022.95
2019-04-19T12:27:45.685Z,1022.98
2019-04-19T12:28:45.814Z,1022.92
2019-04-19T12:29:48.690Z,1022.96
2019-04-19T12:30:50.569Z,1022.88
2019-04-19T12:31:45.580Z,1022.90
2019-04-19T12:32:45.625Z,1022.88
2019-04-19T12:33:45.439Z,1022.88
2019-04-19T12:34:46.634Z,1022.94